sensor_id;sensor_type;location;lat;lon;timestamp;pressure;altitude;pressure_sealevel;temperature
10869;BMP180;62667;48.698;8.762;2023-09-12T00:01:22;95784.00;;;19.30
10869;BMP180;62667;48.698;8.762;2023-09-12T00:03:50;95780.00;;;19.20
10869;BMP180;62667;48.698;8.762;2023-09-12T00:06:20;95789.00;;;19.20
10869;BMP180;62667;48.698;8.762;2023-09-12T00:08:47;95776.00;;;19.20
10869;BMP180;62667;48.698;8.762;2023-09-12T00:11:15;95783.00;;;19.20
10869;BMP180;62667;48.698;8.762;2023-09-12T00:13:42;95788.00;;;19.20
10869;BMP180;62667;48.698;8.762;2023-09-12T00:16:11;95780.00;;;19.20
10869;BMP180;62667;48.698;8.762;2023-09-12T00:18:44;95775.00;;;19.10
10869;BMP180;62667;48.698;8.762;2023-09-12T00:21:13;95775.00;;;19.00
10869;BMP180;62667;48.698;8.762;2023-09-12T00:23:40;95776.00;;;19.10
10869;BMP180;62667;48.698;8.762;2023-09-12T00:26:10;95772.00;;;19.10
10869;BMP180;62667;48.698;8.762;2023-09-12T00:28:38;95774.00;;;19.10
10869;BMP180;62667;48.698;8.762;2023-09-12T00:31:10;95766.00;;;19.00
10869;BMP180;62667;48.698;8.762;2023-09-12T00:33:38;95765.00;;;19.00
10869;BMP180;62667;48.698;8.762;2023-09-12T00:36:05;95768.00;;;18.90
10869;BMP180;62667;48.698;8.762;2023-09-12T00:38:38;95755.00;;;18.90
10869;BMP180;62667;48.698;8.762;2023-09-12T00:41:05;95756.00;;;19.00
10869;BMP180;62667;48.698;8.762;2023-09-12T00:43:33;95763.00;;;18.90
10869;BMP180;62667;48.698;8.762;2023-09-12T00:46:00;95757.00;;;18.80
10869;BMP180;62667;48.698;8.762;2023-09-12T00:48:29;95755.00;;;18.60
10869;BMP180;62667;48.698;8.762;2023-09-12T00:50:58;95752.00;;;18.60
10869;BMP180;62667;48.698;8.762;2023-09-12T00:53:25;95752.00;;;18.60
10869;BMP180;62667;48.698;8.762;2023-09-12T00:55:59;95756.00;;;18.50
10869;BMP180;62667;48.698;8.762;2023-09-12T00:58:31;95750.00;;;18.50
10869;BMP180;62667;48.698;8.762;2023-09-12T01:01:00;95749.00;;;18.50
10869;BMP180;62667;48.698;8.762;2023-09-12T01:03:29;95748.00;;;18.60
10869;BMP180;62667;48.698;8.762;2023-09-12T01:05:58;95748.00;;;18.50
10869;BMP180;62667;48.698;8.762;2023-09-12T01:08:26;95745.00;;;18.40
10869;BMP180;62667;48.698;8.762;2023-09-12T01:10:57;95742.00;;;18.40
10869;BMP180;62667;48.698;8.762;2023-09-12T01:13:28;95741.00;;;18.40
10869;BMP180;62667;48.698;8.762;2023-09-12T01:15:56;95747.00;;;18.30
10869;BMP180;62667;48.698;8.762;2023-09-12T01:18:23;95744.00;;;18.20
10869;BMP180;62667;48.698;8.762;2023-09-12T01:21:12;95739.00;;;18.20
10869;BMP180;62667;48.698;8.762;2023-09-12T01:23:48;95741.00;;;18.10
10869;BMP180;62667;48.698;8.762;2023-09-12T01:26:34;95738.00;;;18.20
10869;BMP180;62667;48.698;8.762;2023-09-12T01:29:10;95745.00;;;18.20
10869;BMP180;62667;48.698;8.762;2023-09-12T01:31:39;95741.00;;;18.20
10869;BMP180;62667;48.698;8.762;2023-09-12T01:34:13;95747.00;;;18.20
10869;BMP180;62667;48.698;8.762;2023-09-12T01:36:41;95748.00;;;18.20
10869;BMP180;62667;48.698;8.762;2023-09-12T01:39:09;95749.00;;;18.10
10869;BMP180;62667;48.698;8.762;2023-09-12T01:41:40;95748.00;;;18.10
10869;BMP180;62667;48.698;8.762;2023-09-12T01:44:18;95744.00;;;18.20
10869;BMP180;62667;48.698;8.762;2023-09-12T01:46:47;95738.00;;;18.20
10869;BMP180;62667;48.698;8.762;2023-09-12T01:49:21;95742.00;;;18.20
10869;BMP180;62667;48.698;8.762;2023-09-12T01:51:51;95733.00;;;18.30
10869;BMP180;62667;48.698;8.762;2023-09-12T01:54:20;95730.00;;;18.30
10869;BMP180;62667;48.698;8.762;2023-09-12T01:56:47;95732.00;;;18.20
10869;BMP180;62667;48.698;8.762;2023-09-12T01:59:16;95746.00;;;17.60
10869;BMP180;62667;48.698;8.762;2023-09-12T02:01:44;95742.00;;;17.60
10869;BMP180;62667;48.698;8.762;2023-09-12T02:04:11;95731.00;;;17.60
10869;BMP180;62667;48.698;8.762;2023-09-12T02:06:41;95742.00;;;17.70
10869;BMP180;62667;48.698;8.762;2023-09-12T02:09:09;95738.00;;;17.80
10869;BMP180;62667;48.698;8.762;2023-09-12T02:11:39;95739.00;;;17.90
10869;BMP180;62667;48.698;8.762;2023-09-12T02:14:06;95737.00;;;17.80
10869;BMP180;62667;48.698;8.762;2023-09-12T02:16:37;95730.00;;;17.70
10869;BMP180;62667;48.698;8.762;2023-09-12T02:19:06;95727.00;;;17.60
10869;BMP180;62667;48.698;8.762;2023-09-12T02:21:33;95733.00;;;17.60
10869;BMP180;62667;48.698;8.762;2023-09-12T02:24:00;95728.00;;;17.60
10869;BMP180;62667;48.698;8.762;2023-09-12T02:26:28;95739.00;;;17.50
10869;BMP180;62667;48.698;8.762;2023-09-12T02:29:04;95732.00;;;17.50
10869;BMP180;62667;48.698;8.762;2023-09-12T02:31:34;95735.00;;;17.60
10869;BMP180;62667;48.698;8.762;2023-09-12T02:34:02;95728.00;;;17.60
10869;BMP180;62667;48.698;8.762;2023-09-12T02:36:29;95737.00;;;17.60
10869;BMP180;62667;48.698;8.762;2023-09-12T02:39:00;95727.00;;;17.60
10869;BMP180;62667;48.698;8.762;2023-09-12T02:41:29;95722.00;;;17.70
10869;BMP180;62667;48.698;8.762;2023-09-12T02:44:02;95715.00;;;17.80
10869;BMP180;62667;48.698;8.762;2023-09-12T02:46:34;95711.00;;;17.70
10869;BMP180;62667;48.698;8.762;2023-09-12T02:49:01;95718.00;;;17.60
10869;BMP180;62667;48.698;8.762;2023-09-12T02:51:29;95716.00;;;17.50
10869;BMP180;62667;48.698;8.762;2023-09-12T02:53:56;95715.00;;;17.60
10869;BMP180;62667;48.698;8.762;2023-09-12T02:56:24;95708.00;;;17.40
10869;BMP180;62667;48.698;8.762;2023-09-12T02:58:54;95718.00;;;17.40
10869;BMP180;62667;48.698;8.762;2023-09-12T03:01:21;95727.00;;;17.40
10869;BMP180;62667;48.698;8.762;2023-09-12T03:03:53;95723.00;;;17.40
10869;BMP180;62667;48.698;8.762;2023-09-12T03:06:21;95719.00;;;17.40
10869;BMP180;62667;48.698;8.762;2023-09-12T03:08:51;95716.00;;;17.30
10869;BMP180;62667;48.698;8.762;2023-09-12T03:11:18;95711.00;;;17.30
10869;BMP180;62667;48.698;8.762;2023-09-12T03:13:47;95720.00;;;17.20
10869;BMP180;62667;48.698;8.762;2023-09-12T03:16:15;95707.00;;;17.10
10869;BMP180;62667;48.698;8.762;2023-09-12T03:18:42;95709.00;;;17.20
10869;BMP180;62667;48.698;8.762;2023-09-12T03:21:11;95705.00;;;17.30
10869;BMP180;62667;48.698;8.762;2023-09-12T03:23:38;95714.00;;;17.30
10869;BMP180;62667;48.698;8.762;2023-09-12T03:26:06;95721.00;;;16.90
10869;BMP180;62667;48.698;8.762;2023-09-12T03:28:34;95703.00;;;16.90
10869;BMP180;62667;48.698;8.762;2023-09-12T03:31:06;95692.00;;;17.00
10869;BMP180;62667;48.698;8.762;2023-09-12T03:33:35;95704.00;;;17.10
10869;BMP180;62667;48.698;8.762;2023-09-12T03:36:05;95697.00;;;17.20
10869;BMP180;62667;48.698;8.762;2023-09-12T03:38:37;95691.00;;;17.20
10869;BMP180;62667;48.698;8.762;2023-09-12T03:41:04;95700.00;;;17.00
10869;BMP180;62667;48.698;8.762;2023-09-12T03:43:33;95690.00;;;16.90
10869;BMP180;62667;48.698;8.762;2023-09-12T03:46:02;95694.00;;;16.90
10869;BMP180;62667;48.698;8.762;2023-09-12T03:48:30;95693.00;;;16.90
10869;BMP180;62667;48.698;8.762;2023-09-12T03:51:03;95690.00;;;16.90
10869;BMP180;62667;48.698;8.762;2023-09-12T03:53:31;95688.00;;;17.10
10869;BMP180;62667;48.698;8.762;2023-09-12T03:56:00;95683.00;;;17.10
10869;BMP180;62667;48.698;8.762;2023-09-12T03:58:28;95680.00;;;17.10
10869;BMP180;62667;48.698;8.762;2023-09-12T04:01:04;95692.00;;;17.00
10869;BMP180;62667;48.698;8.762;2023-09-12T04:03:31;95688.00;;;16.80
10869;BMP180;62667;48.698;8.762;2023-09-12T04:05:59;95691.00;;;16.90
10869;BMP180;62667;48.698;8.762;2023-09-12T04:08:26;95685.00;;;16.90
10869;BMP180;62667;48.698;8.762;2023-09-12T04:10:53;95681.00;;;16.80
10869;BMP180;62667;48.698;8.762;2023-09-12T04:13:24;95682.00;;;16.90
10869;BMP180;62667;48.698;8.762;2023-09-12T04:15:51;95676.00;;;16.90
10869;BMP180;62667;48.698;8.762;2023-09-12T04:18:18;95681.00;;;16.60
10869;BMP180;62667;48.698;8.762;2023-09-12T04:20:46;95684.00;;;16.60
10869;BMP180;62667;48.698;8.762;2023-09-12T04:23:13;95686.00;;;16.90
10869;BMP180;62667;48.698;8.762;2023-09-12T04:25:42;95686.00;;;17.00
10869;BMP180;62667;48.698;8.762;2023-09-12T04:28:10;95658.00;;;17.10
10869;BMP180;62667;48.698;8.762;2023-09-12T04:30:41;95675.00;;;17.20
10869;BMP180;62667;48.698;8.762;2023-09-12T04:33:08;95676.00;;;17.10
10869;BMP180;62667;48.698;8.762;2023-09-12T04:35:36;95670.00;;;16.90
10869;BMP180;62667;48.698;8.762;2023-09-12T04:38:03;95671.00;;;16.90
10869;BMP180;62667;48.698;8.762;2023-09-12T04:40:31;95673.00;;;17.00
10869;BMP180;62667;48.698;8.762;2023-09-12T04:42:58;95674.00;;;17.00
10869;BMP180;62667;48.698;8.762;2023-09-12T04:45:26;95679.00;;;16.70
10869;BMP180;62667;48.698;8.762;2023-09-12T04:47:54;95677.00;;;16.60
10869;BMP180;62667;48.698;8.762;2023-09-12T04:50:23;95672.00;;;16.40
10869;BMP180;62667;48.698;8.762;2023-09-12T04:52:51;95668.00;;;16.60
10869;BMP180;62667;48.698;8.762;2023-09-12T04:55:18;95678.00;;;16.60
10869;BMP180;62667;48.698;8.762;2023-09-12T04:57:45;95683.00;;;16.60
10869;BMP180;62667;48.698;8.762;2023-09-12T05:00:13;95678.00;;;16.70
10869;BMP180;62667;48.698;8.762;2023-09-12T05:02:43;95675.00;;;16.70
10869;BMP180;62667;48.698;8.762;2023-09-12T05:05:12;95680.00;;;16.80
10869;BMP180;62667;48.698;8.762;2023-09-12T05:07:39;95685.00;;;16.90
10869;BMP180;62667;48.698;8.762;2023-09-12T05:10:07;95683.00;;;16.80
10869;BMP180;62667;48.698;8.762;2023-09-12T05:12:39;95678.00;;;16.70
10869;BMP180;62667;48.698;8.762;2023-09-12T05:15:07;95683.00;;;16.70
10869;BMP180;62667;48.698;8.762;2023-09-12T05:17:34;95694.00;;;16.60
10869;BMP180;62667;48.698;8.762;2023-09-12T05:20:02;95688.00;;;16.70
10869;BMP180;62667;48.698;8.762;2023-09-12T05:22:34;95692.00;;;16.80
10869;BMP180;62667;48.698;8.762;2023-09-12T05:25:02;95696.00;;;16.90
10869;BMP180;62667;48.698;8.762;2023-09-12T05:27:29;95699.00;;;17.00
10869;BMP180;62667;48.698;8.762;2023-09-12T05:29:57;95698.00;;;16.90
10869;BMP180;62667;48.698;8.762;2023-09-12T05:32:24;95692.00;;;16.80
10869;BMP180;62667;48.698;8.762;2023-09-12T05:34:52;95702.00;;;16.90
10869;BMP180;62667;48.698;8.762;2023-09-12T05:37:21;95706.00;;;17.00
10869;BMP180;62667;48.698;8.762;2023-09-12T05:39:50;95714.00;;;16.90
10869;BMP180;62667;48.698;8.762;2023-09-12T05:42:17;95714.00;;;16.80
10869;BMP180;62667;48.698;8.762;2023-09-12T05:44:47;95711.00;;;17.00
10869;BMP180;62667;48.698;8.762;2023-09-12T05:47:15;95704.00;;;17.10
10869;BMP180;62667;48.698;8.762;2023-09-12T05:49:42;95709.00;;;17.00
10869;BMP180;62667;48.698;8.762;2023-09-12T05:52:09;95721.00;;;17.00
10869;BMP180;62667;48.698;8.762;2023-09-12T05:54:37;95721.00;;;16.90
10869;BMP180;62667;48.698;8.762;2023-09-12T05:57:06;95711.00;;;17.10
10869;BMP180;62667;48.698;8.762;2023-09-12T06:02:04;95722.00;;;16.90
10869;BMP180;62667;48.698;8.762;2023-09-12T06:04:38;95733.00;;;16.80
10869;BMP180;62667;48.698;8.762;2023-09-12T06:07:05;95732.00;;;16.90
10869;BMP180;62667;48.698;8.762;2023-09-12T06:09:33;95729.00;;;16.90
10869;BMP180;62667;48.698;8.762;2023-09-12T06:12:01;95731.00;;;17.10
10869;BMP180;62667;48.698;8.762;2023-09-12T06:14:29;95723.00;;;17.20
10869;BMP180;62667;48.698;8.762;2023-09-12T06:16:57;95732.00;;;17.30
10869;BMP180;62667;48.698;8.762;2023-09-12T06:19:26;95730.00;;;17.40
10869;BMP180;62667;48.698;8.762;2023-09-12T06:21:55;95729.00;;;17.60
10869;BMP180;62667;48.698;8.762;2023-09-12T06:24:22;95732.00;;;17.70
10869;BMP180;62667;48.698;8.762;2023-09-12T06:26:50;95731.00;;;17.70
10869;BMP180;62667;48.698;8.762;2023-09-12T06:29:20;95731.00;;;17.60
10869;BMP180;62667;48.698;8.762;2023-09-12T06:31:49;95729.00;;;17.70
10869;BMP180;62667;48.698;8.762;2023-09-12T06:34:16;95732.00;;;17.70
10869;BMP180;62667;48.698;8.762;2023-09-12T06:36:44;95727.00;;;17.70
10869;BMP180;62667;48.698;8.762;2023-09-12T06:39:11;95726.00;;;17.80
10869;BMP180;62667;48.698;8.762;2023-09-12T06:41:46;95722.00;;;17.90
10869;BMP180;62667;48.698;8.762;2023-09-12T06:44:14;95723.00;;;18.00
10869;BMP180;62667;48.698;8.762;2023-09-12T06:46:41;95728.00;;;18.30
10869;BMP180;62667;48.698;8.762;2023-09-12T06:49:10;95726.00;;;18.40
10869;BMP180;62667;48.698;8.762;2023-09-12T06:51:37;95728.00;;;18.50
10869;BMP180;62667;48.698;8.762;2023-09-12T06:54:05;95733.00;;;18.60
10869;BMP180;62667;48.698;8.762;2023-09-12T06:56:38;95731.00;;;18.60
10869;BMP180;62667;48.698;8.762;2023-09-12T06:59:08;95737.00;;;18.80
10869;BMP180;62667;48.698;8.762;2023-09-12T07:01:35;95739.00;;;18.90
10869;BMP180;62667;48.698;8.762;2023-09-12T07:04:03;95739.00;;;18.90
10869;BMP180;62667;48.698;8.762;2023-09-12T07:06:32;95742.00;;;19.00
10869;BMP180;62667;48.698;8.762;2023-09-12T07:08:59;95740.00;;;19.00
10869;BMP180;62667;48.698;8.762;2023-09-12T07:11:27;95745.00;;;19.00
10869;BMP180;62667;48.698;8.762;2023-09-12T07:13:54;95743.00;;;19.00
10869;BMP180;62667;48.698;8.762;2023-09-12T07:16:21;95741.00;;;18.70
10869;BMP180;62667;48.698;8.762;2023-09-12T07:18:49;95740.00;;;18.70
10869;BMP180;62667;48.698;8.762;2023-09-12T07:21:17;95740.00;;;18.60
10869;BMP180;62667;48.698;8.762;2023-09-12T07:23:49;95742.00;;;18.60
10869;BMP180;62667;48.698;8.762;2023-09-12T07:26:19;95742.00;;;18.60
10869;BMP180;62667;48.698;8.762;2023-09-12T07:28:46;95743.00;;;18.80
10869;BMP180;62667;48.698;8.762;2023-09-12T07:31:13;95747.00;;;18.90
10869;BMP180;62667;48.698;8.762;2023-09-12T07:33:41;95737.00;;;19.20
10869;BMP180;62667;48.698;8.762;2023-09-12T07:36:08;95741.00;;;19.40
10869;BMP180;62667;48.698;8.762;2023-09-12T07:38:36;95750.00;;;19.50
10869;BMP180;62667;48.698;8.762;2023-09-12T07:41:05;95750.00;;;19.50
10869;BMP180;62667;48.698;8.762;2023-09-12T07:43:33;95750.00;;;19.60
10869;BMP180;62667;48.698;8.762;2023-09-12T07:46:00;95741.00;;;19.70
10869;BMP180;62667;48.698;8.762;2023-09-12T07:48:30;95734.00;;;19.90
10869;BMP180;62667;48.698;8.762;2023-09-12T07:51:01;95739.00;;;20.10
10869;BMP180;62667;48.698;8.762;2023-09-12T07:53:28;95747.00;;;20.20
10869;BMP180;62667;48.698;8.762;2023-09-12T07:55:59;95743.00;;;20.30
10869;BMP180;62667;48.698;8.762;2023-09-12T07:58:28;95743.00;;;20.40
10869;BMP180;62667;48.698;8.762;2023-09-12T08:00:55;95742.00;;;20.60
10869;BMP180;62667;48.698;8.762;2023-09-12T08:03:23;95742.00;;;20.80
10869;BMP180;62667;48.698;8.762;2023-09-12T08:05:56;95737.00;;;21.10
10869;BMP180;62667;48.698;8.762;2023-09-12T08:08:25;95745.00;;;21.10
10869;BMP180;62667;48.698;8.762;2023-09-12T08:10:52;95755.00;;;21.10
10869;BMP180;62667;48.698;8.762;2023-09-12T08:13:21;95751.00;;;21.40
10869;BMP180;62667;48.698;8.762;2023-09-12T08:15:53;95743.00;;;21.60
10869;BMP180;62667;48.698;8.762;2023-09-12T08:18:20;95749.00;;;21.80
10869;BMP180;62667;48.698;8.762;2023-09-12T08:20:47;95745.00;;;21.90
10869;BMP180;62667;48.698;8.762;2023-09-12T08:23:15;95740.00;;;22.20
10869;BMP180;62667;48.698;8.762;2023-09-12T08:25:42;95745.00;;;22.40
10869;BMP180;62667;48.698;8.762;2023-09-12T08:28:11;95739.00;;;22.50
10869;BMP180;62667;48.698;8.762;2023-09-12T08:30:39;95743.00;;;22.80
10869;BMP180;62667;48.698;8.762;2023-09-12T08:33:09;95744.00;;;22.90
10869;BMP180;62667;48.698;8.762;2023-09-12T08:35:38;95747.00;;;23.20
10869;BMP180;62667;48.698;8.762;2023-09-12T08:38:06;95757.00;;;23.40
10869;BMP180;62667;48.698;8.762;2023-09-12T08:40:34;95757.00;;;23.40
10869;BMP180;62667;48.698;8.762;2023-09-12T08:43:02;95760.00;;;23.40
10869;BMP180;62667;48.698;8.762;2023-09-12T08:45:30;95757.00;;;23.70
10869;BMP180;62667;48.698;8.762;2023-09-12T08:48:00;95751.00;;;24.00
10869;BMP180;62667;48.698;8.762;2023-09-12T08:50:30;95751.00;;;24.20
10869;BMP180;62667;48.698;8.762;2023-09-12T08:52:59;95747.00;;;24.40
10869;BMP180;62667;48.698;8.762;2023-09-12T08:55:26;95746.00;;;24.60
10869;BMP180;62667;48.698;8.762;2023-09-12T08:57:56;95716.00;;;24.80
10869;BMP180;62667;48.698;8.762;2023-09-12T09:00:24;95744.00;;;25.00
10869;BMP180;62667;48.698;8.762;2023-09-12T09:02:53;95743.00;;;25.30
10869;BMP180;62667;48.698;8.762;2023-09-12T09:05:22;95737.00;;;25.10
10869;BMP180;62667;48.698;8.762;2023-09-12T09:07:51;95749.00;;;25.40
10869;BMP180;62667;48.698;8.762;2023-09-12T09:10:22;95742.00;;;25.30
10869;BMP180;62667;48.698;8.762;2023-09-12T09:12:49;95730.00;;;25.50
10869;BMP180;62667;48.698;8.762;2023-09-12T09:15:25;95735.00;;;25.70
10869;BMP180;62667;48.698;8.762;2023-09-12T09:17:53;95727.00;;;25.80
10869;BMP180;62667;48.698;8.762;2023-09-12T09:20:29;95725.00;;;26.00
10869;BMP180;62667;48.698;8.762;2023-09-12T09:22:59;95737.00;;;26.00
10869;BMP180;62667;48.698;8.762;2023-09-12T09:25:29;95731.00;;;26.20
10869;BMP180;62667;48.698;8.762;2023-09-12T09:27:58;95726.00;;;26.30
10869;BMP180;62667;48.698;8.762;2023-09-12T09:30:41;95729.00;;;26.50
10869;BMP180;62667;48.698;8.762;2023-09-12T09:33:11;95722.00;;;26.60
10869;BMP180;62667;48.698;8.762;2023-09-12T09:35:40;95725.00;;;26.80
10869;BMP180;62667;48.698;8.762;2023-09-12T09:38:10;95722.00;;;26.80
10869;BMP180;62667;48.698;8.762;2023-09-12T09:40:43;95723.00;;;26.80
10869;BMP180;62667;48.698;8.762;2023-09-12T09:43:10;95716.00;;;26.90
10869;BMP180;62667;48.698;8.762;2023-09-12T09:45:46;95718.00;;;27.00
10869;BMP180;62667;48.698;8.762;2023-09-12T09:48:19;95716.00;;;27.10
10869;BMP180;62667;48.698;8.762;2023-09-12T09:50:46;95722.00;;;27.20
10869;BMP180;62667;48.698;8.762;2023-09-12T09:53:17;95708.00;;;27.50
10869;BMP180;62667;48.698;8.762;2023-09-12T09:55:47;95709.00;;;27.60
10869;BMP180;62667;48.698;8.762;2023-09-12T09:58:15;95716.00;;;27.60
10869;BMP180;62667;48.698;8.762;2023-09-12T10:00:44;95717.00;;;27.70
10869;BMP180;62667;48.698;8.762;2023-09-12T10:03:16;95708.00;;;27.80
10869;BMP180;62667;48.698;8.762;2023-09-12T10:05:45;95711.00;;;28.00
10869;BMP180;62667;48.698;8.762;2023-09-12T10:08:14;95716.00;;;28.00
10869;BMP180;62667;48.698;8.762;2023-09-12T10:10:43;95717.00;;;28.30
10869;BMP180;62667;48.698;8.762;2023-09-12T10:13:11;95717.00;;;28.40
10869;BMP180;62667;48.698;8.762;2023-09-12T10:15:43;95705.00;;;28.30
10869;BMP180;62667;48.698;8.762;2023-09-12T10:18:19;95715.00;;;28.40
10869;BMP180;62667;48.698;8.762;2023-09-12T10:20:54;95704.00;;;28.70
10869;BMP180;62667;48.698;8.762;2023-09-12T10:23:30;95702.00;;;28.90
10869;BMP180;62667;48.698;8.762;2023-09-12T10:26:00;95706.00;;;29.00
10869;BMP180;62667;48.698;8.762;2023-09-12T10:28:28;95708.00;;;29.20
10869;BMP180;62667;48.698;8.762;2023-09-12T10:31:07;95698.00;;;29.20
10869;BMP180;62667;48.698;8.762;2023-09-12T10:33:35;95698.00;;;29.10
10869;BMP180;62667;48.698;8.762;2023-09-12T10:36:04;95694.00;;;29.50
10869;BMP180;62667;48.698;8.762;2023-09-12T10:38:39;95691.00;;;29.70
10869;BMP180;62667;48.698;8.762;2023-09-12T10:41:08;95684.00;;;29.70
10869;BMP180;62667;48.698;8.762;2023-09-12T10:43:38;95686.00;;;29.90
10869;BMP180;62667;48.698;8.762;2023-09-12T10:46:07;95682.00;;;30.00
10869;BMP180;62667;48.698;8.762;2023-09-12T10:48:35;95677.00;;;30.30
10869;BMP180;62667;48.698;8.762;2023-09-12T10:51:04;95690.00;;;30.70
10869;BMP180;62667;48.698;8.762;2023-09-12T10:53:33;95685.00;;;31.00
10869;BMP180;62667;48.698;8.762;2023-09-12T10:56:13;95682.00;;;31.10
10869;BMP180;62667;48.698;8.762;2023-09-12T11:01:43;95677.00;;;31.30
10869;BMP180;62667;48.698;8.762;2023-09-12T11:04:31;95676.00;;;31.30
10869;BMP180;62667;48.698;8.762;2023-09-12T11:07:00;95675.00;;;31.20
10869;BMP180;62667;48.698;8.762;2023-09-12T11:09:29;95679.00;;;31.10
10869;BMP180;62667;48.698;8.762;2023-09-12T11:11:59;95670.00;;;31.10
10869;BMP180;62667;48.698;8.762;2023-09-12T11:14:29;95672.00;;;31.30
10869;BMP180;62667;48.698;8.762;2023-09-12T11:17:22;95667.00;;;31.50
10869;BMP180;62667;48.698;8.762;2023-09-12T11:19:51;95656.00;;;31.90
10869;BMP180;62667;48.698;8.762;2023-09-12T11:22:23;95653.00;;;31.40
10869;BMP180;62667;48.698;8.762;2023-09-12T11:24:53;95646.00;;;31.70
10869;BMP180;62667;48.698;8.762;2023-09-12T11:27:22;95649.00;;;32.10
10869;BMP180;62667;48.698;8.762;2023-09-12T11:29:50;95650.00;;;32.30
10869;BMP180;62667;48.698;8.762;2023-09-12T11:32:27;95653.00;;;32.30
10869;BMP180;62667;48.698;8.762;2023-09-12T11:34:55;95659.00;;;32.00
10869;BMP180;62667;48.698;8.762;2023-09-12T11:37:26;95665.00;;;32.40
10869;BMP180;62667;48.698;8.762;2023-09-12T11:39:56;95652.00;;;32.40
10869;BMP180;62667;48.698;8.762;2023-09-12T11:42:25;95657.00;;;32.50
10869;BMP180;62667;48.698;8.762;2023-09-12T11:44:52;95657.00;;;32.50
10869;BMP180;62667;48.698;8.762;2023-09-12T11:47:20;95657.00;;;32.70
10869;BMP180;62667;48.698;8.762;2023-09-12T11:49:49;95658.00;;;32.10
10869;BMP180;62667;48.698;8.762;2023-09-12T11:52:17;95668.00;;;32.60
10869;BMP180;62667;48.698;8.762;2023-09-12T11:54:45;95682.00;;;32.60
10869;BMP180;62667;48.698;8.762;2023-09-12T11:57:15;95670.00;;;32.50
10869;BMP180;62667;48.698;8.762;2023-09-12T11:59:44;95674.00;;;32.60
10869;BMP180;62667;48.698;8.762;2023-09-12T12:02:13;95675.00;;;32.80
10869;BMP180;62667;48.698;8.762;2023-09-12T12:04:44;95677.00;;;32.70
10869;BMP180;62667;48.698;8.762;2023-09-12T12:07:11;95672.00;;;33.10
10869;BMP180;62667;48.698;8.762;2023-09-12T12:09:40;95662.00;;;33.20
10869;BMP180;62667;48.698;8.762;2023-09-12T12:12:14;95682.00;;;33.10
10869;BMP180;62667;48.698;8.762;2023-09-12T12:14:43;95677.00;;;32.50
10869;BMP180;62667;48.698;8.762;2023-09-12T12:17:12;95678.00;;;32.50
10869;BMP180;62667;48.698;8.762;2023-09-12T12:19:44;95690.00;;;32.50
10869;BMP180;62667;48.698;8.762;2023-09-12T12:22:12;95693.00;;;32.20
10869;BMP180;62667;48.698;8.762;2023-09-12T12:24:41;95693.00;;;32.10
10869;BMP180;62667;48.698;8.762;2023-09-12T12:27:08;95691.00;;;31.60
10869;BMP180;62667;48.698;8.762;2023-09-12T12:29:38;95696.00;;;31.30
10869;BMP180;62667;48.698;8.762;2023-09-12T12:32:08;95694.00;;;31.60
10869;BMP180;62667;48.698;8.762;2023-09-12T12:34:36;95683.00;;;32.10
10869;BMP180;62667;48.698;8.762;2023-09-12T12:37:04;95690.00;;;32.40
10869;BMP180;62667;48.698;8.762;2023-09-12T12:39:32;95689.00;;;32.20
10869;BMP180;62667;48.698;8.762;2023-09-12T12:42:00;95679.00;;;33.00
10869;BMP180;62667;48.698;8.762;2023-09-12T12:44:35;95677.00;;;33.60
10869;BMP180;62667;48.698;8.762;2023-09-12T12:47:10;95690.00;;;33.20
10869;BMP180;62667;48.698;8.762;2023-09-12T12:49:39;95689.00;;;32.60
10869;BMP180;62667;48.698;8.762;2023-09-12T12:52:10;95669.00;;;32.50
10869;BMP180;62667;48.698;8.762;2023-09-12T12:54:37;95667.00;;;32.50
10869;BMP180;62667;48.698;8.762;2023-09-12T12:57:05;95670.00;;;33.10
10869;BMP180;62667;48.698;8.762;2023-09-12T12:59:32;95665.00;;;33.50
10869;BMP180;62667;48.698;8.762;2023-09-12T13:02:02;95672.00;;;33.70
10869;BMP180;62667;48.698;8.762;2023-09-12T13:04:37;95659.00;;;34.00
10869;BMP180;62667;48.698;8.762;2023-09-12T13:07:05;95663.00;;;34.50
10869;BMP180;62667;48.698;8.762;2023-09-12T13:09:33;95660.00;;;34.30
10869;BMP180;62667;48.698;8.762;2023-09-12T13:12:00;95661.00;;;34.50
10869;BMP180;62667;48.698;8.762;2023-09-12T13:14:28;95654.00;;;34.80
10869;BMP180;62667;48.698;8.762;2023-09-12T13:16:57;95648.00;;;35.00
10869;BMP180;62667;48.698;8.762;2023-09-12T13:19:25;95643.00;;;35.20
10869;BMP180;62667;48.698;8.762;2023-09-12T13:21:54;95647.00;;;35.20
10869;BMP180;62667;48.698;8.762;2023-09-12T13:24:21;95640.00;;;35.40
10869;BMP180;62667;48.698;8.762;2023-09-12T13:26:49;95638.00;;;35.80
10869;BMP180;62667;48.698;8.762;2023-09-12T13:29:17;95639.00;;;36.10
10869;BMP180;62667;48.698;8.762;2023-09-12T13:31:44;95635.00;;;36.00
10869;BMP180;62667;48.698;8.762;2023-09-12T13:34:15;95625.00;;;36.40
10869;BMP180;62667;48.698;8.762;2023-09-12T13:36:42;95622.00;;;36.70
10869;BMP180;62667;48.698;8.762;2023-09-12T13:39:11;95623.00;;;36.80
10869;BMP180;62667;48.698;8.762;2023-09-12T13:41:40;95647.00;;;36.30
10869;BMP180;62667;48.698;8.762;2023-09-12T13:44:07;95619.00;;;35.60
10869;BMP180;62667;48.698;8.762;2023-09-12T13:46:35;95625.00;;;35.70
10869;BMP180;62667;48.698;8.762;2023-09-12T13:49:05;95614.00;;;36.00
10869;BMP180;62667;48.698;8.762;2023-09-12T13:51:32;95639.00;;;35.60
10869;BMP180;62667;48.698;8.762;2023-09-12T13:54:00;95619.00;;;34.80
10869;BMP180;62667;48.698;8.762;2023-09-12T13:56:29;95611.00;;;35.20
10869;BMP180;62667;48.698;8.762;2023-09-12T13:58:58;95606.00;;;35.50
10869;BMP180;62667;48.698;8.762;2023-09-12T14:01:25;95618.00;;;36.00
10869;BMP180;62667;48.698;8.762;2023-09-12T14:03:53;95639.00;;;35.10
10869;BMP180;62667;48.698;8.762;2023-09-12T14:06:20;95623.00;;;34.50
10869;BMP180;62667;48.698;8.762;2023-09-12T14:08:49;95627.00;;;35.70
10869;BMP180;62667;48.698;8.762;2023-09-12T14:11:17;95644.00;;;34.60
10869;BMP180;62667;48.698;8.762;2023-09-12T14:13:45;95626.00;;;34.60
10869;BMP180;62667;48.698;8.762;2023-09-12T14:16:13;95645.00;;;34.30
10869;BMP180;62667;48.698;8.762;2023-09-12T14:18:41;95651.00;;;33.50
10869;BMP180;62667;48.698;8.762;2023-09-12T14:21:09;95656.00;;;33.00
10869;BMP180;62667;48.698;8.762;2023-09-12T14:23:37;95656.00;;;32.70
10869;BMP180;62667;48.698;8.762;2023-09-12T14:26:04;95662.00;;;32.50